createdAt,value
2022-09-06T00:01:15.318Z,8.32
2022-09-06T00:03:43.378Z,7.55
2022-09-06T00:06:15.924Z,7.82
2022-09-06T00:08:45.659Z,10.05
2022-09-06T00:11:15.013Z,11.48
2022-09-06T00:13:43.204Z,6.35
2022-09-06T00:16:14.423Z,6.38
2022-09-06T00:18:43.754Z,5.95
2022-09-06T00:21:23.956Z,4.70
2022-09-06T00:23:52.949Z,6.40
2022-09-06T00:26:21.912Z,6.88
2022-09-06T00:28:50.343Z,7.63
2022-09-06T00:31:24.611Z,8.02
2022-09-06T00:33:53.149Z,10.88
2022-09-06T00:36:22.053Z,6.95
2022-09-06T00:38:50.117Z,6.80
2022-09-06T00:41:18.019Z,9.55
2022-09-06T00:43:46.242Z,8.88
2022-09-06T00:46:21.034Z,7.75
2022-09-06T00:48:52.480Z,8.40
2022-09-06T00:51:22.204Z,9.70
2022-09-06T00:53:50.823Z,7.82
2022-09-06T00:56:18.980Z,12.35
2022-09-06T00:58:48.182Z,8.93
2022-09-06T01:01:16.315Z,8.77
2022-09-06T01:03:44.208Z,9.15
2022-09-06T01:06:26.469Z,7.07
2022-09-06T01:09:06.705Z,6.60
2022-09-06T01:12:05.816Z,9.55
2022-09-06T01:14:54.872Z,5.40
2022-09-06T01:17:41.652Z,7.47
2022-09-06T01:20:33.621Z,7.07
2022-09-06T01:23:37.611Z,6.43
2022-09-06T01:26:42.897Z,5.20
2022-09-06T01:34:08.502Z,11.20
2022-09-06T01:36:45.928Z,10.98
2022-09-06T01:39:27.093Z,9.52
2022-09-06T01:41:57.954Z,7.90
2022-09-06T01:44:27.929Z,8.52
2022-09-06T01:47:10.766Z,6.97
2022-09-06T01:49:56.791Z,7.38
2022-09-06T01:52:42.339Z,8.70
2022-09-06T01:55:28.061Z,9.43
2022-09-06T01:58:22.590Z,9.15
2022-09-06T02:01:19.247Z,8.57
2022-09-06T02:04:11.201Z,6.85
2022-09-06T02:06:50.975Z,6.05
2022-09-06T02:09:23.778Z,8.88
2022-09-06T02:11:59.688Z,5.68
2022-09-06T02:19:10.748Z,8.32
2022-09-06T02:21:42.637Z,6.75
2022-09-06T02:24:20.859Z,10.88
2022-09-06T02:26:49.941Z,8.73
2022-09-06T02:29:18.578Z,9.50
2022-09-06T02:31:55.705Z,6.70
2022-09-06T02:34:23.632Z,6.90
2022-09-06T02:36:51.847Z,8.25
2022-09-06T02:39:19.731Z,9.73
2022-09-06T02:41:48.346Z,6.57
2022-09-06T02:44:16.325Z,8.70
2022-09-06T02:51:18.934Z,8.77
2022-09-06T02:53:47.265Z,7.43
2022-09-06T02:56:15.255Z,6.82
2022-09-06T02:58:43.555Z,10.07
2022-09-06T03:01:11.521Z,12.20
2022-09-06T03:03:39.396Z,7.32
2022-09-06T03:06:07.433Z,9.38
2022-09-06T03:08:36.562Z,11.77
2022-09-06T03:11:04.662Z,8.38
2022-09-06T03:13:32.494Z,10.30
2022-09-06T03:16:01.514Z,8.65
2022-09-06T03:18:31.148Z,10.70
2022-09-06T03:20:59.797Z,16.15
2022-09-06T03:23:29.787Z,13.23
2022-09-06T03:25:58.001Z,11.82
2022-09-06T03:28:26.163Z,12.55
2022-09-06T03:30:54.070Z,10.77
2022-09-06T03:33:22.791Z,9.52
2022-09-06T03:35:57.312Z,11.25
2022-09-06T03:38:27.110Z,11.90
2022-09-06T03:40:55.554Z,11.38
2022-09-06T03:43:24.971Z,11.70
2022-09-06T03:45:57.208Z,8.57
2022-09-06T03:48:28.410Z,13.03
2022-09-06T03:50:58.009Z,12.43
2022-09-06T03:53:27.172Z,12.32
2022-09-06T03:55:57.612Z,11.25
2022-09-06T03:58:30.659Z,12.13
2022-09-06T04:01:03.692Z,10.88
2022-09-06T04:05:59.495Z,12.85
2022-09-06T04:08:27.860Z,11.25
2022-09-06T04:10:57.945Z,9.20
2022-09-06T04:13:27.827Z,7.90
2022-09-06T04:15:55.955Z,9.05
2022-09-06T04:18:24.276Z,10.65
2022-09-06T04:20:54.552Z,12.43
2022-09-06T04:23:23.726Z,12.52
2022-09-06T04:25:53.780Z,13.05
2022-09-06T04:28:22.640Z,13.30
2022-09-06T04:35:23.312Z,11.25
2022-09-06T04:37:51.192Z,10.82
2022-09-06T04:40:18.996Z,11.02
2022-09-06T04:42:46.821Z,13.50
2022-09-06T04:45:14.788Z,9.77
2022-09-06T04:47:42.812Z,12.55
2022-09-06T04:50:10.753Z,10.15
2022-09-06T04:52:39.653Z,13.75
2022-09-06T04:55:07.864Z,12.75
2022-09-06T04:57:35.694Z,12.90
2022-09-06T05:00:04.305Z,11.27
2022-09-06T05:02:32.351Z,12.25
2022-09-06T05:05:00.247Z,13.82
2022-09-06T05:07:28.179Z,9.80
2022-09-06T05:09:55.977Z,11.02
2022-09-06T05:12:23.868Z,8.63
2022-09-06T05:14:51.688Z,7.93
2022-09-06T05:17:19.533Z,12.55
2022-09-06T05:19:47.946Z,8.85
2022-09-06T05:22:15.852Z,6.43
2022-09-06T05:24:44.058Z,7.78
2022-09-06T05:27:12.775Z,7.63
2022-09-06T05:29:40.620Z,13.02
2022-09-06T05:32:08.590Z,8.73
2022-09-06T05:34:36.457Z,8.82
2022-09-06T05:37:04.370Z,8.05
2022-09-06T05:39:32.328Z,7.75
2022-09-06T05:42:00.672Z,9.32
2022-09-06T05:44:28.541Z,7.53
2022-09-06T05:46:56.389Z,6.45
2022-09-06T05:49:24.253Z,7.30
2022-09-06T05:51:52.353Z,7.07
2022-09-06T05:54:20.253Z,6.40
2022-09-06T05:56:48.107Z,8.18
2022-09-06T05:59:16.251Z,6.78
2022-09-06T06:06:18.708Z,6.80
2022-09-06T06:08:46.906Z,6.72
2022-09-06T06:11:15.075Z,8.00
2022-09-06T06:13:43.583Z,5.90
2022-09-06T06:16:13.986Z,7.38
2022-09-06T06:23:15.180Z,6.65
2022-09-06T06:25:43.011Z,5.95
2022-09-06T06:28:29.602Z,7.75
2022-09-06T06:30:57.936Z,11.10
2022-09-06T06:33:25.761Z,8.98
2022-09-06T06:36:08.525Z,5.55
2022-09-06T06:38:38.176Z,8.13
2022-09-06T06:41:08.986Z,9.95
2022-09-06T06:43:37.960Z,6.15
2022-09-06T06:46:11.304Z,6.10
2022-09-06T06:48:43.778Z,7.22
2022-09-06T06:53:40.583Z,9.93
2022-09-06T06:56:22.379Z,11.23
2022-09-06T06:58:52.633Z,12.48
2022-09-06T07:01:22.114Z,6.65
2022-09-06T07:03:50.545Z,8.90
2022-09-06T07:06:19.990Z,6.93
2022-09-06T07:08:48.700Z,7.93
2022-09-06T07:11:20.473Z,8.43
2022-09-06T07:13:50.947Z,7.75
2022-09-06T07:16:23.564Z,7.53
2022-09-06T07:18:53.076Z,14.68
2022-09-06T07:21:42.575Z,9.32
2022-09-06T07:24:10.775Z,9.77
2022-09-06T07:26:40.237Z,7.53
2022-09-06T07:29:08.671Z,8.23
2022-09-06T07:34:26.027Z,8.25
2022-09-06T07:36:55.433Z,6.90
2022-09-06T07:39:23.665Z,7.10
2022-09-06T07:41:51.870Z,7.68
2022-09-06T07:44:19.774Z,5.82
2022-09-06T07:46:47.664Z,6.85
2022-09-06T07:49:15.597Z,7.03
2022-09-06T07:51:43.906Z,6.32
2022-09-06T07:54:30.558Z,7.15
2022-09-06T07:56:59.002Z,5.47
2022-09-06T07:59:27.619Z,5.45
2022-09-06T08:01:55.716Z,4.40
2022-09-06T08:04:23.765Z,7.35
2022-09-06T08:09:40.075Z,5.75
2022-09-06T08:12:08.353Z,5.40
2022-09-06T08:14:36.449Z,5.53
2022-09-06T08:17:04.933Z,6.22
2022-09-06T08:19:32.918Z,5.93
2022-09-06T08:22:00.852Z,4.63
2022-09-06T08:24:28.894Z,10.20
2022-09-06T08:26:56.772Z,5.93
2022-09-06T08:29:26.024Z,5.18
2022-09-06T08:31:53.969Z,5.30
2022-09-06T08:34:21.964Z,9.05
2022-09-06T08:36:49.831Z,6.95
2022-09-06T08:39:17.757Z,7.80
2022-09-06T08:42:07.162Z,4.88
2022-09-06T08:44:58.803Z,8.20
2022-09-06T08:47:26.971Z,5.15
2022-09-06T08:50:01.160Z,5.80
2022-09-06T08:53:06.069Z,6.25
2022-09-06T08:55:55.102Z,5.93
2022-09-06T08:58:25.719Z,5.72
2022-09-06T09:01:12.728Z,7.57
2022-09-06T09:03:42.646Z,6.30
2022-09-06T09:06:11.120Z,5.75
2022-09-06T09:09:06.165Z,4.78
2022-09-06T09:11:36.225Z,7.10
2022-09-06T09:14:36.606Z,6.60
2022-09-06T09:17:11.094Z,8.70
2022-09-06T09:19:41.727Z,9.85
2022-09-06T09:22:18.638Z,7.05
2022-09-06T09:24:48.607Z,5.15
2022-09-06T09:27:42.501Z,6.32
2022-09-06T09:32:59.517Z,5.00
2022-09-06T09:35:30.307Z,5.68
2022-09-06T09:38:11.023Z,7.00
2022-09-06T09:40:42.926Z,5.47
2022-09-06T09:43:19.586Z,7.82
2022-09-06T09:46:14.583Z,6.85
2022-09-06T09:49:02.712Z,6.47
2022-09-06T09:51:32.378Z,4.35
2022-09-06T09:54:04.172Z,5.43
2022-09-06T09:56:53.978Z,7.75
2022-09-06T09:59:57.217Z,6.90
2022-09-06T10:02:27.584Z,4.65
2022-09-06T10:05:18.155Z,5.68
2022-09-06T10:07:46.061Z,6.35
2022-09-06T10:10:20.761Z,7.38
2022-09-06T10:17:50.826Z,5.05
2022-09-06T10:20:19.153Z,4.95
2022-09-06T10:26:55.868Z,5.85
2022-09-06T10:29:35.616Z,6.20
2022-09-06T10:32:31.119Z,5.93
2022-09-06T10:35:16.679Z,9.85
2022-09-06T10:38:23.977Z,5.35
2022-09-06T10:41:10.380Z,5.20
2022-09-06T10:44:06.350Z,4.78
2022-09-06T10:46:35.810Z,5.63
2022-09-06T10:49:03.729Z,4.80
2022-09-06T10:51:46.251Z,5.63
2022-09-06T10:54:16.840Z,6.72
2022-09-06T10:56:44.849Z,5.22
2022-09-06T11:02:26.683Z,4.85
2022-09-06T11:10:45.728Z,6.18
2022-09-06T11:13:17.211Z,4.90
2022-09-06T11:16:10.707Z,6.00
2022-09-06T11:23:48.536Z,4.15
2022-09-06T11:26:19.090Z,5.75
2022-09-06T11:28:53.416Z,7.68
2022-09-06T11:34:56.181Z,8.43
2022-09-06T11:37:28.189Z,7.68
2022-09-06T11:43:14.132Z,4.85
2022-09-06T11:45:41.875Z,5.82
2022-09-06T11:48:25.418Z,6.85
2022-09-06T11:51:03.450Z,5.30
2022-09-06T11:53:34.163Z,7.30
2022-09-06T11:56:02.116Z,4.93
2022-09-06T11:58:41.955Z,4.50
2022-09-06T12:01:16.704Z,8.57
2022-09-06T12:04:09.457Z,5.95
2022-09-06T12:06:43.948Z,5.97
2022-09-06T12:09:36.578Z,7.63
2022-09-06T12:16:14.132Z,7.65
2022-09-06T12:18:47.802Z,6.60
2022-09-06T12:21:38.804Z,6.10
2022-09-06T12:24:09.419Z,4.60
2022-09-06T12:26:54.476Z,4.93
2022-09-06T12:29:26.091Z,8.00
2022-09-06T12:32:05.892Z,6.05
2022-09-06T12:34:35.726Z,6.25
2022-09-06T12:37:10.676Z,8.80
2022-09-06T12:39:38.835Z,4.05
2022-09-06T12:42:12.775Z,4.97
2022-09-06T12:45:06.185Z,4.00
2022-09-06T12:47:37.379Z,5.28
2022-09-06T12:50:13.000Z,4.53
2022-09-06T12:52:47.349Z,4.82
2022-09-06T12:55:24.230Z,7.10
2022-09-06T12:57:58.228Z,5.63
2022-09-06T13:00:32.859Z,5.55
2022-09-06T13:03:19.790Z,4.78
2022-09-06T13:10:42.151Z,4.82
2022-09-06T13:13:10.533Z,5.47
2022-09-06T13:15:38.582Z,4.05
2022-09-06T13:18:31.179Z,7.47
2022-09-06T13:23:27.117Z,4.43
2022-09-06T13:25:56.175Z,4.95
2022-09-06T13:28:29.633Z,5.70
2022-09-06T13:31:17.629Z,6.28
2022-09-06T13:33:55.095Z,7.57
2022-09-06T13:36:49.111Z,5.18
2022-09-06T13:39:49.654Z,4.68
2022-09-06T13:42:35.636Z,5.25
2022-09-06T13:45:19.922Z,8.48
2022-09-06T13:47:47.806Z,5.70
2022-09-06T13:50:16.797Z,6.03
2022-09-06T13:52:44.644Z,6.22
2022-09-06T13:55:18.417Z,3.58
2022-09-06T13:57:46.368Z,4.88
2022-09-06T14:00:14.817Z,3.58
2022-09-06T14:02:43.535Z,4.60
2022-09-06T14:05:12.043Z,5.60
2022-09-06T14:07:39.934Z,4.75
2022-09-06T14:10:08.070Z,5.60
2022-09-06T14:12:36.189Z,4.13
2022-09-06T14:15:05.155Z,5.55
2022-09-06T14:17:33.254Z,4.45
2022-09-06T14:20:01.171Z,7.03
2022-09-06T14:22:31.252Z,4.30
2022-09-06T14:24:59.144Z,3.90
2022-09-06T14:27:27.360Z,6.88
2022-09-06T14:29:55.354Z,4.57
2022-09-06T14:32:23.187Z,5.40
2022-09-06T14:34:50.961Z,5.85
2022-09-06T14:37:19.019Z,5.50
2022-09-06T14:39:46.970Z,8.32
2022-09-06T14:49:21.700Z,5.90
2022-09-06T14:51:49.530Z,6.30
2022-09-06T14:54:17.376Z,6.22
2022-09-06T14:56:45.366Z,9.23
2022-09-06T14:59:13.305Z,8.70
2022-09-06T15:01:41.776Z,8.10
2022-09-06T15:04:11.233Z,5.15
2022-09-06T15:06:41.239Z,8.85
2022-09-06T15:09:11.547Z,8.35
2022-09-06T15:11:45.191Z,9.05
2022-09-06T15:14:22.621Z,9.27
2022-09-06T15:16:56.027Z,5.55
2022-09-06T15:19:25.811Z,7.18
2022-09-06T15:21:55.476Z,5.90
2022-09-06T15:24:24.997Z,7.22
2022-09-06T15:26:53.704Z,6.78
2022-09-06T15:29:22.635Z,5.35
2022-09-06T15:31:51.297Z,7.00
2022-09-06T15:34:21.308Z,6.32
2022-09-06T15:36:50.142Z,6.97
2022-09-06T15:39:18.659Z,14.25
2022-09-06T15:41:46.846Z,7.78
2022-09-06T15:44:16.979Z,5.38
2022-09-06T15:46:57.657Z,6.93
2022-09-06T15:49:28.651Z,6.05
2022-09-06T15:51:58.395Z,9.20
2022-09-06T15:55:41.712Z,7.45
2022-09-06T15:58:09.661Z,8.07
2022-09-06T16:00:37.661Z,6.47
2022-09-06T16:03:23.956Z,8.50
2022-09-06T16:06:27.257Z,6.45
2022-09-06T16:08:58.763Z,6.93
2022-09-06T16:12:17.084Z,7.30
2022-09-06T16:14:44.952Z,9.10
2022-09-06T16:17:12.798Z,5.43
2022-09-06T16:19:40.691Z,6.35
2022-09-06T16:22:08.646Z,9.65
2022-09-06T16:24:36.489Z,11.55
2022-09-06T16:27:04.391Z,8.95
2022-09-06T16:29:32.320Z,7.10
2022-09-06T16:32:00.703Z,7.00
2022-09-06T16:34:28.642Z,11.88
2022-09-06T16:36:57.177Z,11.63
2022-09-06T16:39:25.138Z,6.95
2022-09-06T16:41:53.129Z,8.30
2022-09-06T16:44:21.090Z,7.13
2022-09-06T16:46:49.963Z,8.38
2022-09-06T16:49:19.384Z,6.75
2022-09-06T16:51:49.089Z,7.60
2022-09-06T16:54:18.332Z,7.97
2022-09-06T16:56:46.310Z,8.77
2022-09-06T16:59:17.101Z,11.55
2022-09-06T17:01:45.725Z,9.88
2022-09-06T17:04:14.440Z,9.70
2022-09-06T17:06:44.683Z,8.40
2022-09-06T17:09:15.349Z,11.60
2022-09-06T17:11:43.347Z,8.75
2022-09-06T17:14:11.630Z,5.45
2022-09-06T17:16:58.188Z,8.30
2022-09-06T17:19:26.572Z,9.32
2022-09-06T17:21:54.472Z,10.55
2022-09-06T17:28:57.705Z,7.60
2022-09-06T17:31:26.287Z,9.00
2022-09-06T17:33:54.463Z,7.53
2022-09-06T17:36:30.494Z,8.88
2022-09-06T17:39:10.872Z,10.63
2022-09-06T17:41:41.961Z,8.68
2022-09-06T17:44:11.676Z,10.15
2022-09-06T17:46:52.028Z,8.30
2022-09-06T17:49:28.514Z,7.93
2022-09-06T17:51:57.002Z,10.30
2022-09-06T17:54:25.102Z,10.90
2022-09-06T17:56:53.126Z,10.50
2022-09-06T17:59:21.263Z,11.52
2022-09-06T18:01:49.111Z,9.23
2022-09-06T18:04:18.071Z,10.80
2022-09-06T18:06:46.890Z,8.88
2022-09-06T18:09:17.579Z,10.52
2022-09-06T18:11:47.110Z,76.47
2022-09-06T18:14:18.761Z,15.25
2022-09-06T18:16:49.136Z,23.52
2022-09-06T18:19:18.098Z,18.27
2022-09-06T18:21:46.747Z,28.13
2022-09-06T18:24:15.270Z,28.33
2022-09-06T18:26:43.885Z,24.83
2022-09-06T18:29:14.737Z,23.02
2022-09-06T18:31:43.608Z,46.00
2022-09-06T18:34:12.480Z,40.03
2022-09-06T18:36:40.921Z,39.17
2022-09-06T18:39:08.878Z,31.25
2022-09-06T18:41:55.456Z,30.30
2022-09-06T18:44:23.473Z,28.85
2022-09-06T18:46:55.761Z,30.08
2022-09-06T18:49:24.251Z,26.65
2022-09-06T18:51:52.284Z,20.25
2022-09-06T18:54:45.565Z,17.50
2022-09-06T18:57:15.461Z,15.55
2022-09-06T18:59:44.609Z,15.52
2022-09-06T19:02:14.341Z,18.67
2022-09-06T19:04:42.753Z,18.02
2022-09-06T19:07:10.940Z,19.23
2022-09-06T19:09:38.993Z,18.05
2022-09-06T19:12:07.344Z,16.60
2022-09-06T19:14:35.244Z,15.45
2022-09-06T19:17:03.291Z,19.35
2022-09-06T19:19:31.247Z,17.92
2022-09-06T19:21:59.233Z,18.05
2022-09-06T19:24:27.248Z,17.67
2022-09-06T19:26:55.692Z,13.48
2022-09-06T19:29:23.639Z,15.95
2022-09-06T19:31:52.242Z,11.77
2022-09-06T19:34:20.468Z,11.48
2022-09-06T19:36:50.083Z,11.77
2022-09-06T19:39:18.264Z,13.23
2022-09-06T19:41:47.647Z,13.27
2022-09-06T19:44:17.060Z,10.65
2022-09-06T19:46:47.011Z,8.35
2022-09-06T19:49:17.222Z,9.35
2022-09-06T19:51:46.593Z,11.30
2022-09-06T19:54:15.874Z,11.85
2022-09-06T19:56:44.815Z,11.63
2022-09-06T19:59:15.334Z,14.82
2022-09-06T20:01:46.794Z,13.55
2022-09-06T20:04:15.788Z,11.98
2022-09-06T20:06:43.840Z,10.82
2022-09-06T20:09:12.100Z,8.23
2022-09-06T20:11:41.296Z,10.68
2022-09-06T20:14:11.403Z,10.73
2022-09-06T20:16:42.171Z,10.70
2022-09-06T20:19:12.166Z,11.85
2022-09-06T20:21:40.206Z,10.73
2022-09-06T20:24:08.473Z,12.18
2022-09-06T20:26:36.367Z,9.77
2022-09-06T20:29:05.152Z,10.40
2022-09-06T20:31:34.359Z,8.40
2022-09-06T20:34:04.281Z,12.00
2022-09-06T20:36:32.479Z,11.00
2022-09-06T20:39:00.376Z,8.70
2022-09-06T20:41:28.548Z,12.32
2022-09-06T20:43:58.760Z,10.20
2022-09-06T20:46:32.298Z,10.15
2022-09-06T20:49:04.832Z,9.60
2022-09-06T20:51:34.551Z,13.88
2022-09-06T20:54:04.264Z,10.88
2022-09-06T20:56:34.736Z,14.90
2022-09-06T20:59:13.122Z,9.80
2022-09-06T21:01:46.107Z,14.93
2022-09-06T21:04:16.472Z,11.30
2022-09-06T21:06:45.934Z,10.68
2022-09-06T21:09:15.258Z,15.73
2022-09-06T21:11:43.864Z,13.52
2022-09-06T21:14:12.691Z,16.92
2022-09-06T21:16:41.326Z,14.50
2022-09-06T21:19:10.708Z,16.23
2022-09-06T21:21:39.237Z,14.45
2022-09-06T21:24:08.218Z,12.52
2022-09-06T21:26:36.413Z,11.68
2022-09-06T21:29:04.891Z,15.35
2022-09-06T21:31:36.263Z,9.55
2022-09-06T21:34:07.538Z,17.35
2022-09-06T21:36:37.194Z,13.07
2022-09-06T21:39:10.903Z,9.38
2022-09-06T21:41:40.404Z,12.13
2022-09-06T21:44:09.514Z,15.10
2022-09-06T21:46:39.054Z,11.27
2022-09-06T21:49:09.834Z,11.65
2022-09-06T21:51:37.926Z,12.20
2022-09-06T21:54:12.810Z,11.23
2022-09-06T21:56:44.946Z,16.10
2022-09-06T21:59:12.982Z,12.07
2022-09-06T22:01:43.171Z,10.70
2022-09-06T22:04:13.777Z,14.68
2022-09-06T22:06:41.716Z,9.80
2022-09-06T22:09:11.662Z,11.35
2022-09-06T22:11:42.466Z,11.68
2022-09-06T22:14:12.771Z,10.20
2022-09-06T22:16:41.177Z,13.00
2022-09-06T22:19:09.897Z,11.93
2022-09-06T22:21:38.853Z,13.15
2022-09-06T22:24:09.785Z,11.55
2022-09-06T22:26:39.078Z,10.20
2022-09-06T22:29:09.292Z,11.85
2022-09-06T22:31:37.949Z,12.38
2022-09-06T22:34:06.189Z,13.63
2022-09-06T22:36:34.415Z,10.82
2022-09-06T22:39:02.388Z,10.55
2022-09-06T22:41:32.917Z,9.45
2022-09-06T22:44:02.367Z,11.68
2022-09-06T22:46:30.997Z,8.75
2022-09-06T22:48:59.430Z,9.13
2022-09-06T22:51:27.364Z,13.35
2022-09-06T22:53:55.366Z,10.60
2022-09-06T22:56:23.450Z,15.82
2022-09-06T22:58:51.313Z,10.60
2022-09-06T23:01:19.204Z,11.63
2022-09-06T23:03:48.171Z,10.93
2022-09-06T23:06:16.366Z,13.55
2022-09-06T23:08:44.271Z,11.88
2022-09-06T23:11:15.347Z,10.35
2022-09-06T23:13:43.993Z,10.68
2022-09-06T23:16:15.035Z,11.25
2022-09-06T23:18:43.256Z,12.40
2022-09-06T23:21:13.641Z,11.52
2022-09-06T23:23:42.268Z,9.32
2022-09-06T23:26:13.621Z,10.75
2022-09-06T23:28:41.993Z,10.57
2022-09-06T23:31:12.544Z,10.50
2022-09-06T23:33:41.832Z,10.45
2022-09-06T23:36:12.378Z,10.68
2022-09-06T23:38:41.353Z,9.45
2022-09-06T23:41:10.379Z,9.20
2022-09-06T23:43:38.890Z,12.30
2022-09-06T23:46:08.096Z,9.75
2022-09-06T23:48:36.389Z,10.55
2022-09-06T23:51:04.447Z,10.07
2022-09-06T23:53:33.266Z,9.82
2022-09-06T23:56:01.823Z,9.52
2022-09-06T23:58:31.090Z,10.70
